sensor_id;sensor_type;location;lat;lon;timestamp;P1;durP1;ratioP1;P2;durP2;ratioP2
56999;SDS011;42891;50.006;21.964;2022-07-29T00:02:30;11.93;;;4.57;;
56999;SDS011;42891;50.006;21.964;2022-07-29T00:06:31;7.22;;;4.60;;
56999;SDS011;42891;50.006;21.964;2022-07-29T00:10:32;6.87;;;4.40;;
56999;SDS011;42891;50.006;21.964;2022-07-29T00:14:32;7.07;;;4.30;;
56999;SDS011;42891;50.006;21.964;2022-07-29T00:18:33;9.35;;;4.30;;
56999;SDS011;42891;50.006;21.964;2022-07-29T00:22:36;8.48;;;4.50;;
56999;SDS011;42891;50.006;21.964;2022-07-29T00:26:37;5.80;;;3.67;;
56999;SDS011;42891;50.006;21.964;2022-07-29T00:30:38;8.00;;;4.20;;
56999;SDS011;42891;50.006;21.964;2022-07-29T00:34:38;6.00;;;4.10;;
56999;SDS011;42891;50.006;21.964;2022-07-29T00:38:57;5.70;;;3.20;;
56999;SDS011;42891;50.006;21.964;2022-07-29T00:42:58;7.07;;;4.37;;
56999;SDS011;42891;50.006;21.964;2022-07-29T00:46:58;8.88;;;4.50;;
56999;SDS011;42891;50.006;21.964;2022-07-29T00:50:59;5.03;;;3.53;;
56999;SDS011;42891;50.006;21.964;2022-07-29T00:55:02;6.28;;;3.97;;
56999;SDS011;42891;50.006;21.964;2022-07-29T00:59:04;10.23;;;4.25;;
56999;SDS011;42891;50.006;21.964;2022-07-29T01:03:05;5.90;;;4.10;;
56999;SDS011;42891;50.006;21.964;2022-07-29T01:07:05;6.18;;;4.22;;
56999;SDS011;42891;50.006;21.964;2022-07-29T01:11:06;5.05;;;3.70;;
56999;SDS011;42891;50.006;21.964;2022-07-29T01:15:07;6.97;;;3.65;;
56999;SDS011;42891;50.006;21.964;2022-07-29T01:32:50;4.03;;;3.30;;
56999;SDS011;42891;50.006;21.964;2022-07-29T01:37:05;6.40;;;3.15;;
56999;SDS011;42891;50.006;21.964;2022-07-29T01:41:14;8.15;;;3.72;;
56999;SDS011;42891;50.006;21.964;2022-07-29T01:45:18;5.93;;;3.30;;
56999;SDS011;42891;50.006;21.964;2022-07-29T01:49:28;7.03;;;3.47;;
56999;SDS011;42891;50.006;21.964;2022-07-29T01:53:35;5.78;;;3.50;;
56999;SDS011;42891;50.006;21.964;2022-07-29T01:57:44;8.65;;;3.13;;
56999;SDS011;42891;50.006;21.964;2022-07-29T02:01:47;7.40;;;3.15;;
56999;SDS011;42891;50.006;21.964;2022-07-29T02:05:50;5.57;;;3.10;;
56999;SDS011;42891;50.006;21.964;2022-07-29T02:09:52;6.10;;;3.28;;
56999;SDS011;42891;50.006;21.964;2022-07-29T02:13:54;4.22;;;2.67;;
56999;SDS011;42891;50.006;21.964;2022-07-29T02:17:58;5.38;;;3.05;;
56999;SDS011;42891;50.006;21.964;2022-07-29T02:22:02;5.00;;;3.20;;
56999;SDS011;42891;50.006;21.964;2022-07-29T02:26:05;4.93;;;2.88;;
56999;SDS011;42891;50.006;21.964;2022-07-29T02:30:08;4.93;;;3.38;;
56999;SDS011;42891;50.006;21.964;2022-07-29T02:34:10;6.95;;;3.17;;
56999;SDS011;42891;50.006;21.964;2022-07-29T02:38:13;6.20;;;3.30;;
56999;SDS011;42891;50.006;21.964;2022-07-29T02:42:34;4.47;;;2.85;;
56999;SDS011;42891;50.006;21.964;2022-07-29T02:46:37;4.32;;;3.35;;
56999;SDS011;42891;50.006;21.964;2022-07-29T02:50:44;6.88;;;3.58;;
56999;SDS011;42891;50.006;21.964;2022-07-29T02:58:54;4.43;;;3.20;;
56999;SDS011;42891;50.006;21.964;2022-07-29T03:02:58;6.85;;;3.33;;
56999;SDS011;42891;50.006;21.964;2022-07-29T03:07:00;6.72;;;2.92;;
56999;SDS011;42891;50.006;21.964;2022-07-29T03:11:01;7.40;;;3.40;;
56999;SDS011;42891;50.006;21.964;2022-07-29T03:15:03;7.07;;;3.65;;
56999;SDS011;42891;50.006;21.964;2022-07-29T03:19:04;4.88;;;3.33;;
56999;SDS011;42891;50.006;21.964;2022-07-29T03:23:05;5.85;;;3.28;;
56999;SDS011;42891;50.006;21.964;2022-07-29T03:27:05;5.47;;;3.65;;
56999;SDS011;42891;50.006;21.964;2022-07-29T03:31:06;6.43;;;4.10;;
56999;SDS011;42891;50.006;21.964;2022-07-29T03:35:06;8.57;;;4.43;;
56999;SDS011;42891;50.006;21.964;2022-07-29T03:39:07;7.13;;;4.55;;
56999;SDS011;42891;50.006;21.964;2022-07-29T03:43:09;8.73;;;4.40;;
56999;SDS011;42891;50.006;21.964;2022-07-29T03:47:11;4.20;;;3.60;;
56999;SDS011;42891;50.006;21.964;2022-07-29T03:51:14;6.68;;;4.30;;
56999;SDS011;42891;50.006;21.964;2022-07-29T03:55:15;4.00;;;3.05;;
56999;SDS011;42891;50.006;21.964;2022-07-29T03:59:16;8.35;;;3.60;;
56999;SDS011;42891;50.006;21.964;2022-07-29T04:03:19;8.23;;;3.30;;
56999;SDS011;42891;50.006;21.964;2022-07-29T04:07:20;4.47;;;2.80;;
56999;SDS011;42891;50.006;21.964;2022-07-29T04:11:20;6.25;;;3.10;;
56999;SDS011;42891;50.006;21.964;2022-07-29T04:15:21;5.47;;;2.83;;
56999;SDS011;42891;50.006;21.964;2022-07-29T04:19:21;6.07;;;3.05;;
56999;SDS011;42891;50.006;21.964;2022-07-29T04:23:22;5.22;;;3.33;;
56999;SDS011;42891;50.006;21.964;2022-07-29T04:27:22;7.27;;;3.20;;
56999;SDS011;42891;50.006;21.964;2022-07-29T04:31:22;3.10;;;2.40;;
56999;SDS011;42891;50.006;21.964;2022-07-29T04:35:23;4.13;;;2.47;;
56999;SDS011;42891;50.006;21.964;2022-07-29T04:39:24;4.85;;;2.90;;
56999;SDS011;42891;50.006;21.964;2022-07-29T04:43:24;4.95;;;2.78;;
56999;SDS011;42891;50.006;21.964;2022-07-29T04:47:24;5.25;;;3.05;;
56999;SDS011;42891;50.006;21.964;2022-07-29T04:51:25;7.00;;;3.00;;
56999;SDS011;42891;50.006;21.964;2022-07-29T04:55:25;7.18;;;3.50;;
56999;SDS011;42891;50.006;21.964;2022-07-29T04:59:26;3.90;;;2.72;;
56999;SDS011;42891;50.006;21.964;2022-07-29T05:03:26;9.15;;;3.40;;
56999;SDS011;42891;50.006;21.964;2022-07-29T05:07:27;6.90;;;3.10;;
56999;SDS011;42891;50.006;21.964;2022-07-29T05:11:27;5.88;;;3.10;;
56999;SDS011;42891;50.006;21.964;2022-07-29T05:15:28;5.47;;;3.40;;
56999;SDS011;42891;50.006;21.964;2022-07-29T05:19:28;5.70;;;3.80;;
56999;SDS011;42891;50.006;21.964;2022-07-29T05:23:28;6.37;;;4.00;;
56999;SDS011;42891;50.006;21.964;2022-07-29T05:27:28;7.90;;;3.90;;
56999;SDS011;42891;50.006;21.964;2022-07-29T05:31:29;9.10;;;3.63;;
56999;SDS011;42891;50.006;21.964;2022-07-29T05:35:29;6.63;;;3.33;;
56999;SDS011;42891;50.006;21.964;2022-07-29T05:39:29;7.30;;;3.17;;
56999;SDS011;42891;50.006;21.964;2022-07-29T05:43:30;9.20;;;3.10;;
56999;SDS011;42891;50.006;21.964;2022-07-29T05:47:30;6.55;;;3.20;;
56999;SDS011;42891;50.006;21.964;2022-07-29T05:51:30;6.00;;;2.80;;
56999;SDS011;42891;50.006;21.964;2022-07-29T05:55:31;8.25;;;2.70;;
56999;SDS011;42891;50.006;21.964;2022-07-29T05:59:34;6.93;;;3.70;;
56999;SDS011;42891;50.006;21.964;2022-07-29T06:03:35;4.85;;;3.13;;
56999;SDS011;42891;50.006;21.964;2022-07-29T06:07:37;5.00;;;2.97;;
56999;SDS011;42891;50.006;21.964;2022-07-29T06:11:37;7.97;;;3.20;;
56999;SDS011;42891;50.006;21.964;2022-07-29T06:15:38;4.90;;;2.67;;
56999;SDS011;42891;50.006;21.964;2022-07-29T06:19:38;5.93;;;2.63;;
56999;SDS011;42891;50.006;21.964;2022-07-29T06:23:39;11.10;;;3.00;;
56999;SDS011;42891;50.006;21.964;2022-07-29T06:27:39;8.50;;;2.83;;
56999;SDS011;42891;50.006;21.964;2022-07-29T06:31:39;10.60;;;2.60;;
56999;SDS011;42891;50.006;21.964;2022-07-29T06:35:40;6.70;;;2.50;;
56999;SDS011;42891;50.006;21.964;2022-07-29T06:39:42;10.05;;;2.40;;
56999;SDS011;42891;50.006;21.964;2022-07-29T06:43:43;4.43;;;2.40;;
56999;SDS011;42891;50.006;21.964;2022-07-29T06:47:44;9.25;;;2.22;;
56999;SDS011;42891;50.006;21.964;2022-07-29T06:51:45;6.50;;;2.10;;
56999;SDS011;42891;50.006;21.964;2022-07-29T06:55:45;5.38;;;2.03;;
56999;SDS011;42891;50.006;21.964;2022-07-29T06:59:45;4.90;;;2.10;;
56999;SDS011;42891;50.006;21.964;2022-07-29T07:03:46;5.13;;;2.20;;
56999;SDS011;42891;50.006;21.964;2022-07-29T07:07:46;4.50;;;2.30;;
56999;SDS011;42891;50.006;21.964;2022-07-29T07:11:46;4.20;;;2.35;;
56999;SDS011;42891;50.006;21.964;2022-07-29T07:15:46;3.60;;;2.33;;
56999;SDS011;42891;50.006;21.964;2022-07-29T07:19:48;7.15;;;2.30;;
56999;SDS011;42891;50.006;21.964;2022-07-29T07:23:48;6.80;;;2.40;;
56999;SDS011;42891;50.006;21.964;2022-07-29T07:27:48;7.53;;;2.53;;
56999;SDS011;42891;50.006;21.964;2022-07-29T07:31:49;7.40;;;2.33;;
56999;SDS011;42891;50.006;21.964;2022-07-29T07:35:50;6.32;;;2.65;;
56999;SDS011;42891;50.006;21.964;2022-07-29T07:39:51;5.07;;;2.33;;
56999;SDS011;42891;50.006;21.964;2022-07-29T07:43:51;5.90;;;2.30;;
56999;SDS011;42891;50.006;21.964;2022-07-29T07:47:51;8.40;;;2.90;;
56999;SDS011;42891;50.006;21.964;2022-07-29T07:51:52;6.13;;;2.57;;
56999;SDS011;42891;50.006;21.964;2022-07-29T07:55:52;3.47;;;2.00;;
56999;SDS011;42891;50.006;21.964;2022-07-29T07:59:53;6.03;;;2.50;;
56999;SDS011;42891;50.006;21.964;2022-07-29T08:03:53;5.25;;;2.30;;
56999;SDS011;42891;50.006;21.964;2022-07-29T08:07:53;5.97;;;2.30;;
56999;SDS011;42891;50.006;21.964;2022-07-29T08:11:54;3.83;;;1.90;;
56999;SDS011;42891;50.006;21.964;2022-07-29T08:15:55;3.55;;;2.50;;
56999;SDS011;42891;50.006;21.964;2022-07-29T08:19:59;4.22;;;2.40;;
56999;SDS011;42891;50.006;21.964;2022-07-29T08:23:59;4.90;;;2.20;;
56999;SDS011;42891;50.006;21.964;2022-07-29T08:28:18;3.55;;;2.10;;
56999;SDS011;42891;50.006;21.964;2022-07-29T08:32:19;4.88;;;2.38;;
56999;SDS011;42891;50.006;21.964;2022-07-29T08:36:19;7.00;;;2.23;;
56999;SDS011;42891;50.006;21.964;2022-07-29T08:40:20;5.05;;;2.17;;
56999;SDS011;42891;50.006;21.964;2022-07-29T08:44:21;12.07;;;2.80;;
56999;SDS011;42891;50.006;21.964;2022-07-29T08:48:22;4.32;;;2.40;;
56999;SDS011;42891;50.006;21.964;2022-07-29T08:52:24;8.13;;;2.22;;
56999;SDS011;42891;50.006;21.964;2022-07-29T08:56:26;3.55;;;1.90;;
56999;SDS011;42891;50.006;21.964;2022-07-29T09:00:27;3.40;;;1.92;;
56999;SDS011;42891;50.006;21.964;2022-07-29T09:04:29;6.70;;;2.45;;
56999;SDS011;42891;50.006;21.964;2022-07-29T09:08:34;7.88;;;2.50;;
56999;SDS011;42891;50.006;21.964;2022-07-29T09:12:34;4.63;;;2.30;;
56999;SDS011;42891;50.006;21.964;2022-07-29T09:16:45;4.90;;;2.25;;
56999;SDS011;42891;50.006;21.964;2022-07-29T09:20:51;3.03;;;1.98;;
56999;SDS011;42891;50.006;21.964;2022-07-29T09:25:11;10.85;;;2.67;;
56999;SDS011;42891;50.006;21.964;2022-07-29T09:29:22;4.22;;;2.20;;
56999;SDS011;42891;50.006;21.964;2022-07-29T09:33:25;5.47;;;2.40;;
56999;SDS011;42891;50.006;21.964;2022-07-29T09:37:34;8.65;;;2.20;;
56999;SDS011;42891;50.006;21.964;2022-07-29T09:41:44;3.92;;;2.10;;
56999;SDS011;42891;50.006;21.964;2022-07-29T09:45:46;7.05;;;2.42;;
56999;SDS011;42891;50.006;21.964;2022-07-29T09:50:06;4.68;;;2.55;;
56999;SDS011;42891;50.006;21.964;2022-07-29T09:54:22;8.45;;;2.42;;
56999;SDS011;42891;50.006;21.964;2022-07-29T09:58:24;4.78;;;2.50;;
56999;SDS011;42891;50.006;21.964;2022-07-29T10:02:28;5.85;;;2.40;;
56999;SDS011;42891;50.006;21.964;2022-07-29T10:06:30;4.30;;;2.13;;
56999;SDS011;42891;50.006;21.964;2022-07-29T10:10:32;2.97;;;2.08;;
56999;SDS011;42891;50.006;21.964;2022-07-29T10:14:35;3.80;;;2.15;;
56999;SDS011;42891;50.006;21.964;2022-07-29T10:18:37;4.20;;;2.15;;
56999;SDS011;42891;50.006;21.964;2022-07-29T10:22:39;3.67;;;2.20;;
56999;SDS011;42891;50.006;21.964;2022-07-29T10:26:40;5.63;;;2.17;;
56999;SDS011;42891;50.006;21.964;2022-07-29T10:30:42;6.60;;;2.25;;
56999;SDS011;42891;50.006;21.964;2022-07-29T10:39:05;4.05;;;2.00;;
56999;SDS011;42891;50.006;21.964;2022-07-29T10:43:21;5.10;;;2.38;;
56999;SDS011;42891;50.006;21.964;2022-07-29T10:47:26;6.15;;;2.50;;
56999;SDS011;42891;50.006;21.964;2022-07-29T10:51:48;4.85;;;2.30;;
56999;SDS011;42891;50.006;21.964;2022-07-29T10:55:51;6.65;;;2.40;;
56999;SDS011;42891;50.006;21.964;2022-07-29T11:04:01;6.38;;;2.38;;
56999;SDS011;42891;50.006;21.964;2022-07-29T11:21:02;5.15;;;2.28;;
56999;SDS011;42891;50.006;21.964;2022-07-29T11:25:12;7.00;;;2.43;;
56999;SDS011;42891;50.006;21.964;2022-07-29T11:29:20;5.53;;;2.28;;
56999;SDS011;42891;50.006;21.964;2022-07-29T11:33:31;2.58;;;2.22;;
56999;SDS011;42891;50.006;21.964;2022-07-29T11:37:32;5.45;;;2.38;;
56999;SDS011;42891;50.006;21.964;2022-07-29T11:41:32;5.30;;;2.17;;
56999;SDS011;42891;50.006;21.964;2022-07-29T11:45:46;5.82;;;2.67;;
56999;SDS011;42891;50.006;21.964;2022-07-29T11:49:46;5.30;;;2.20;;
56999;SDS011;42891;50.006;21.964;2022-07-29T11:53:48;2.63;;;2.30;;
56999;SDS011;42891;50.006;21.964;2022-07-29T11:57:50;5.22;;;2.45;;
56999;SDS011;42891;50.006;21.964;2022-07-29T12:01:59;5.50;;;2.40;;
56999;SDS011;42891;50.006;21.964;2022-07-29T12:05:59;3.83;;;2.50;;
56999;SDS011;42891;50.006;21.964;2022-07-29T12:10:00;4.47;;;2.22;;
56999;SDS011;42891;50.006;21.964;2022-07-29T12:14:01;3.80;;;1.92;;
56999;SDS011;42891;50.006;21.964;2022-07-29T12:18:09;6.55;;;2.50;;
56999;SDS011;42891;50.006;21.964;2022-07-29T12:22:10;4.82;;;2.40;;
56999;SDS011;42891;50.006;21.964;2022-07-29T12:26:11;4.28;;;2.45;;
56999;SDS011;42891;50.006;21.964;2022-07-29T12:30:12;5.95;;;2.50;;
56999;SDS011;42891;50.006;21.964;2022-07-29T12:34:15;4.65;;;2.30;;
56999;SDS011;42891;50.006;21.964;2022-07-29T12:38:15;3.20;;;2.55;;
56999;SDS011;42891;50.006;21.964;2022-07-29T12:42:16;4.25;;;2.45;;
56999;SDS011;42891;50.006;21.964;2022-07-29T12:46:18;4.65;;;2.20;;
56999;SDS011;42891;50.006;21.964;2022-07-29T12:50:18;3.83;;;2.10;;
56999;SDS011;42891;50.006;21.964;2022-07-29T12:54:19;7.20;;;2.22;;
56999;SDS011;42891;50.006;21.964;2022-07-29T13:02:32;3.13;;;2.08;;
56999;SDS011;42891;50.006;21.964;2022-07-29T13:10:38;4.80;;;2.28;;
56999;SDS011;42891;50.006;21.964;2022-07-29T13:14:45;3.75;;;2.15;;
56999;SDS011;42891;50.006;21.964;2022-07-29T13:18:47;4.60;;;2.75;;
56999;SDS011;42891;50.006;21.964;2022-07-29T13:22:47;4.70;;;2.20;;
56999;SDS011;42891;50.006;21.964;2022-07-29T13:26:48;9.50;;;2.20;;
56999;SDS011;42891;50.006;21.964;2022-07-29T13:30:48;5.60;;;2.20;;
56999;SDS011;42891;50.006;21.964;2022-07-29T13:34:48;2.40;;;2.20;;
56999;SDS011;42891;50.006;21.964;2022-07-29T13:38:49;2.80;;;2.00;;
56999;SDS011;42891;50.006;21.964;2022-07-29T13:42:49;2.28;;;2.00;;
56999;SDS011;42891;50.006;21.964;2022-07-29T13:46:51;4.28;;;2.20;;
56999;SDS011;42891;50.006;21.964;2022-07-29T13:50:51;3.72;;;2.40;;
56999;SDS011;42891;50.006;21.964;2022-07-29T13:54:52;5.27;;;2.17;;
56999;SDS011;42891;50.006;21.964;2022-07-29T13:58:52;3.67;;;2.40;;
56999;SDS011;42891;50.006;21.964;2022-07-29T14:02:52;7.13;;;2.63;;
56999;SDS011;42891;50.006;21.964;2022-07-29T14:06:53;3.83;;;2.30;;
56999;SDS011;42891;50.006;21.964;2022-07-29T14:10:54;3.08;;;2.20;;
56999;SDS011;42891;50.006;21.964;2022-07-29T14:14:54;5.30;;;2.20;;
56999;SDS011;42891;50.006;21.964;2022-07-29T14:18:55;7.43;;;2.30;;
56999;SDS011;42891;50.006;21.964;2022-07-29T14:22:55;5.00;;;2.57;;
56999;SDS011;42891;50.006;21.964;2022-07-29T14:26:56;5.80;;;2.30;;
56999;SDS011;42891;50.006;21.964;2022-07-29T14:30:56;3.05;;;2.25;;
56999;SDS011;42891;50.006;21.964;2022-07-29T14:34:57;6.10;;;2.20;;
56999;SDS011;42891;50.006;21.964;2022-07-29T14:38:57;4.67;;;2.23;;
56999;SDS011;42891;50.006;21.964;2022-07-29T14:42:57;3.45;;;2.60;;
56999;SDS011;42891;50.006;21.964;2022-07-29T14:46:58;2.80;;;2.20;;
56999;SDS011;42891;50.006;21.964;2022-07-29T14:50:59;5.57;;;2.55;;
56999;SDS011;42891;50.006;21.964;2022-07-29T14:55:01;7.03;;;2.72;;
56999;SDS011;42891;50.006;21.964;2022-07-29T14:59:02;4.13;;;2.30;;
56999;SDS011;42891;50.006;21.964;2022-07-29T15:03:03;3.17;;;2.20;;
56999;SDS011;42891;50.006;21.964;2022-07-29T15:07:03;8.63;;;2.53;;
56999;SDS011;42891;50.006;21.964;2022-07-29T15:11:04;4.57;;;2.40;;
56999;SDS011;42891;50.006;21.964;2022-07-29T15:15:04;10.07;;;2.50;;
56999;SDS011;42891;50.006;21.964;2022-07-29T15:19:05;14.20;;;2.67;;
56999;SDS011;42891;50.006;21.964;2022-07-29T15:23:05;7.95;;;2.78;;
56999;SDS011;42891;50.006;21.964;2022-07-29T15:27:09;5.15;;;2.38;;
56999;SDS011;42891;50.006;21.964;2022-07-29T15:31:13;7.90;;;2.40;;
56999;SDS011;42891;50.006;21.964;2022-07-29T15:35:14;3.90;;;2.50;;
56999;SDS011;42891;50.006;21.964;2022-07-29T15:39:14;5.40;;;2.53;;
56999;SDS011;42891;50.006;21.964;2022-07-29T15:43:14;5.73;;;2.30;;
56999;SDS011;42891;50.006;21.964;2022-07-29T15:47:15;9.70;;;2.72;;
56999;SDS011;42891;50.006;21.964;2022-07-29T15:51:15;5.87;;;2.80;;
56999;SDS011;42891;50.006;21.964;2022-07-29T15:55:15;10.13;;;2.60;;
56999;SDS011;42891;50.006;21.964;2022-07-29T15:59:16;3.80;;;2.50;;
56999;SDS011;42891;50.006;21.964;2022-07-29T16:03:17;7.93;;;2.88;;
56999;SDS011;42891;50.006;21.964;2022-07-29T16:07:18;2.65;;;2.38;;
56999;SDS011;42891;50.006;21.964;2022-07-29T16:11:18;5.80;;;2.63;;
56999;SDS011;42891;50.006;21.964;2022-07-29T16:15:19;8.57;;;2.87;;
56999;SDS011;42891;50.006;21.964;2022-07-29T16:19:19;2.87;;;2.50;;
56999;SDS011;42891;50.006;21.964;2022-07-29T16:23:19;13.60;;;2.73;;
56999;SDS011;42891;50.006;21.964;2022-07-29T16:27:20;6.00;;;2.40;;
56999;SDS011;42891;50.006;21.964;2022-07-29T16:31:23;5.90;;;2.85;;
56999;SDS011;42891;50.006;21.964;2022-07-29T16:35:24;4.40;;;2.55;;
56999;SDS011;42891;50.006;21.964;2022-07-29T16:39:25;9.45;;;3.05;;
56999;SDS011;42891;50.006;21.964;2022-07-29T16:43:25;6.95;;;3.05;;
56999;SDS011;42891;50.006;21.964;2022-07-29T16:47:25;6.43;;;3.08;;
56999;SDS011;42891;50.006;21.964;2022-07-29T16:51:26;6.50;;;2.70;;
56999;SDS011;42891;50.006;21.964;2022-07-29T16:55:26;15.07;;;6.47;;
56999;SDS011;42891;50.006;21.964;2022-07-29T16:59:27;14.85;;;6.88;;
56999;SDS011;42891;50.006;21.964;2022-07-29T17:03:28;14.27;;;8.65;;
56999;SDS011;42891;50.006;21.964;2022-07-29T17:07:28;11.27;;;7.18;;
56999;SDS011;42891;50.006;21.964;2022-07-29T17:11:29;15.73;;;7.00;;
56999;SDS011;42891;50.006;21.964;2022-07-29T17:15:29;12.73;;;6.30;;
56999;SDS011;42891;50.006;21.964;2022-07-29T17:19:31;12.07;;;6.40;;
56999;SDS011;42891;50.006;21.964;2022-07-29T17:23:34;11.77;;;5.35;;
56999;SDS011;42891;50.006;21.964;2022-07-29T17:27:34;8.03;;;4.37;;
56999;SDS011;42891;50.006;21.964;2022-07-29T17:31:35;7.93;;;4.15;;
56999;SDS011;42891;50.006;21.964;2022-07-29T17:35:36;6.40;;;3.78;;
56999;SDS011;42891;50.006;21.964;2022-07-29T17:39:55;7.00;;;3.85;;
56999;SDS011;42891;50.006;21.964;2022-07-29T17:43:55;6.55;;;3.03;;
56999;SDS011;42891;50.006;21.964;2022-07-29T17:47:56;6.15;;;3.60;;
56999;SDS011;42891;50.006;21.964;2022-07-29T17:51:56;6.37;;;3.23;;
56999;SDS011;42891;50.006;21.964;2022-07-29T17:55:57;4.70;;;3.20;;
56999;SDS011;42891;50.006;21.964;2022-07-29T17:59:57;5.88;;;3.30;;
56999;SDS011;42891;50.006;21.964;2022-07-29T18:03:58;5.17;;;3.17;;
56999;SDS011;42891;50.006;21.964;2022-07-29T18:07:58;8.23;;;3.65;;
56999;SDS011;42891;50.006;21.964;2022-07-29T18:11:58;6.00;;;3.60;;
56999;SDS011;42891;50.006;21.964;2022-07-29T18:15:59;9.17;;;3.53;;
56999;SDS011;42891;50.006;21.964;2022-07-29T18:19:59;7.00;;;3.92;;
56999;SDS011;42891;50.006;21.964;2022-07-29T18:24:00;5.13;;;3.45;;
56999;SDS011;42891;50.006;21.964;2022-07-29T18:28:01;9.10;;;3.95;;
56999;SDS011;42891;50.006;21.964;2022-07-29T18:32:01;8.18;;;4.20;;
56999;SDS011;42891;50.006;21.964;2022-07-29T18:36:01;9.48;;;4.00;;
56999;SDS011;42891;50.006;21.964;2022-07-29T18:40:02;14.20;;;4.38;;
56999;SDS011;42891;50.006;21.964;2022-07-29T18:44:04;8.80;;;4.07;;
56999;SDS011;42891;50.006;21.964;2022-07-29T18:48:04;14.73;;;4.95;;
56999;SDS011;42891;50.006;21.964;2022-07-29T18:52:07;9.98;;;4.80;;
56999;SDS011;42891;50.006;21.964;2022-07-29T18:56:07;11.03;;;5.00;;
56999;SDS011;42891;50.006;21.964;2022-07-29T19:00:08;15.03;;;4.77;;
56999;SDS011;42891;50.006;21.964;2022-07-29T19:04:09;13.10;;;5.82;;
56999;SDS011;42891;50.006;21.964;2022-07-29T19:08:09;15.93;;;6.32;;
56999;SDS011;42891;50.006;21.964;2022-07-29T19:12:09;12.70;;;6.90;;
56999;SDS011;42891;50.006;21.964;2022-07-29T19:16:10;17.88;;;8.10;;
56999;SDS011;42891;50.006;21.964;2022-07-29T19:20:12;13.73;;;6.85;;
56999;SDS011;42891;50.006;21.964;2022-07-29T19:24:13;12.63;;;6.63;;
56999;SDS011;42891;50.006;21.964;2022-07-29T19:28:14;10.13;;;5.67;;
56999;SDS011;42891;50.006;21.964;2022-07-29T19:32:14;16.07;;;5.90;;
56999;SDS011;42891;50.006;21.964;2022-07-29T19:36:14;11.32;;;5.45;;
56999;SDS011;42891;50.006;21.964;2022-07-29T19:40:15;8.70;;;4.80;;
56999;SDS011;42891;50.006;21.964;2022-07-29T19:44:16;13.23;;;4.78;;
56999;SDS011;42891;50.006;21.964;2022-07-29T19:48:16;13.85;;;5.40;;
56999;SDS011;42891;50.006;21.964;2022-07-29T19:52:16;14.98;;;5.55;;
56999;SDS011;42891;50.006;21.964;2022-07-29T19:56:17;10.82;;;4.82;;
56999;SDS011;42891;50.006;21.964;2022-07-29T20:00:17;9.52;;;4.93;;
56999;SDS011;42891;50.006;21.964;2022-07-29T20:04:19;10.82;;;4.97;;
56999;SDS011;42891;50.006;21.964;2022-07-29T20:08:19;11.33;;;5.07;;
56999;SDS011;42891;50.006;21.964;2022-07-29T20:12:20;10.57;;;4.03;;
56999;SDS011;42891;50.006;21.964;2022-07-29T20:16:21;10.50;;;4.25;;
56999;SDS011;42891;50.006;21.964;2022-07-29T20:20:22;7.82;;;4.22;;
56999;SDS011;42891;50.006;21.964;2022-07-29T20:24:22;10.85;;;3.95;;
56999;SDS011;42891;50.006;21.964;2022-07-29T20:28:23;8.63;;;3.83;;
56999;SDS011;42891;50.006;21.964;2022-07-29T20:32:23;8.35;;;3.90;;
56999;SDS011;42891;50.006;21.964;2022-07-29T20:36:23;6.90;;;3.33;;
56999;SDS011;42891;50.006;21.964;2022-07-29T20:40:24;8.73;;;4.10;;
56999;SDS011;42891;50.006;21.964;2022-07-29T20:44:25;6.70;;;3.85;;
56999;SDS011;42891;50.006;21.964;2022-07-29T20:48:25;7.55;;;3.78;;
56999;SDS011;42891;50.006;21.964;2022-07-29T20:52:26;10.30;;;3.75;;
56999;SDS011;42891;50.006;21.964;2022-07-29T20:56:28;13.32;;;4.25;;
56999;SDS011;42891;50.006;21.964;2022-07-29T21:00:28;8.37;;;3.93;;
56999;SDS011;42891;50.006;21.964;2022-07-29T21:04:30;7.95;;;3.88;;
56999;SDS011;42891;50.006;21.964;2022-07-29T21:08:30;10.00;;;4.43;;
56999;SDS011;42891;50.006;21.964;2022-07-29T21:12:31;7.90;;;4.33;;
56999;SDS011;42891;50.006;21.964;2022-07-29T21:16:32;10.07;;;4.10;;
56999;SDS011;42891;50.006;21.964;2022-07-29T21:20:33;9.68;;;4.65;;
56999;SDS011;42891;50.006;21.964;2022-07-29T21:24:33;11.10;;;4.80;;
56999;SDS011;42891;50.006;21.964;2022-07-29T21:28:34;8.07;;;5.05;;
56999;SDS011;42891;50.006;21.964;2022-07-29T21:32:39;11.35;;;5.13;;
56999;SDS011;42891;50.006;21.964;2022-07-29T21:36:39;11.83;;;5.90;;
56999;SDS011;42891;50.006;21.964;2022-07-29T21:40:39;13.60;;;5.90;;
56999;SDS011;42891;50.006;21.964;2022-07-29T21:44:40;8.57;;;5.40;;
56999;SDS011;42891;50.006;21.964;2022-07-29T21:48:40;17.60;;;6.40;;
56999;SDS011;42891;50.006;21.964;2022-07-29T21:52:41;12.13;;;6.23;;
56999;SDS011;42891;50.006;21.964;2022-07-29T21:56:41;11.30;;;6.05;;
56999;SDS011;42891;50.006;21.964;2022-07-29T22:00:41;11.80;;;5.97;;
56999;SDS011;42891;50.006;21.964;2022-07-29T22:04:42;10.82;;;5.40;;
56999;SDS011;42891;50.006;21.964;2022-07-29T22:08:43;10.48;;;6.00;;
56999;SDS011;42891;50.006;21.964;2022-07-29T22:12:44;12.90;;;6.13;;
56999;SDS011;42891;50.006;21.964;2022-07-29T22:16:45;15.35;;;6.97;;
56999;SDS011;42891;50.006;21.964;2022-07-29T22:20:47;10.73;;;5.63;;
56999;SDS011;42891;50.006;21.964;2022-07-29T22:24:48;12.85;;;7.25;;
56999;SDS011;42891;50.006;21.964;2022-07-29T22:28:49;14.57;;;6.65;;
56999;SDS011;42891;50.006;21.964;2022-07-29T22:32:49;13.00;;;6.50;;
56999;SDS011;42891;50.006;21.964;2022-07-29T22:36:49;8.53;;;6.10;;
56999;SDS011;42891;50.006;21.964;2022-07-29T22:40:50;11.85;;;5.53;;
56999;SDS011;42891;50.006;21.964;2022-07-29T22:44:51;10.23;;;6.47;;
56999;SDS011;42891;50.006;21.964;2022-07-29T22:48:51;8.73;;;6.00;;
56999;SDS011;42891;50.006;21.964;2022-07-29T22:52:51;6.87;;;5.40;;
56999;SDS011;42891;50.006;21.964;2022-07-29T22:56:52;11.90;;;5.43;;
56999;SDS011;42891;50.006;21.964;2022-07-29T23:00:52;9.13;;;5.72;;
56999;SDS011;42891;50.006;21.964;2022-07-29T23:04:52;9.50;;;5.32;;
56999;SDS011;42891;50.006;21.964;2022-07-29T23:08:53;10.40;;;5.60;;
56999;SDS011;42891;50.006;21.964;2022-07-29T23:12:53;9.27;;;5.53;;
56999;SDS011;42891;50.006;21.964;2022-07-29T23:16:53;16.05;;;6.22;;
56999;SDS011;42891;50.006;21.964;2022-07-29T23:20:54;10.00;;;5.90;;
56999;SDS011;42891;50.006;21.964;2022-07-29T23:24:54;9.18;;;5.93;;
56999;SDS011;42891;50.006;21.964;2022-07-29T23:28:54;8.97;;;5.30;;
56999;SDS011;42891;50.006;21.964;2022-07-29T23:32:55;12.13;;;5.38;;
56999;SDS011;42891;50.006;21.964;2022-07-29T23:36:55;11.20;;;5.40;;
56999;SDS011;42891;50.006;21.964;2022-07-29T23:40:55;8.23;;;5.07;;
56999;SDS011;42891;50.006;21.964;2022-07-29T23:44:57;11.88;;;5.22;;
56999;SDS011;42891;50.006;21.964;2022-07-29T23:48:57;8.87;;;6.17;;
56999;SDS011;42891;50.006;21.964;2022-07-29T23:52:58;9.52;;;6.18;;
56999;SDS011;42891;50.006;21.964;2022-07-29T23:56:58;11.33;;;5.90;;
